KCOS/COS METAR and TAF weather

Enter ICAO airport designator
Station Type Date Time Source
KCOS METAR 2022/01/28 23:54 UTC NOAA

KCOS 282354Z 18007KT 10SM CLR 06/M13 A3034 RMK AO2 SLP315 T00561133 10089 20039 56006


Station Type Date Time Source
KCOS Decoded METAR 2022/01/28 23:54 UTC NOAA

COLORADO SPRINGS MUNI, CO, United States (KCOS) 38-49N 104-43W 1856M
Jan 28, 2022 - 06:54 PM EST / 2022.01.28 2354 UTC
Wind: from the S (180 degrees) at 8 MPH (7 KT):0
Visibility: 10 mile(s):0
Sky conditions: clear
Temperature: 42.1 F (5.6 C)
Dew Point: 8.1 F (-13.3 C)
Relative Humidity: 24%
Pressure (altimeter): 30.34 in. Hg (1027 hPa)
Pressure tendency: 0.02 inches (0.6 hPa) lower than three hours ago
ob: KCOS 282354Z 18007KT 10SM CLR 06/M13 A3034 RMK AO2 SLP315 T00561133 10089 20039 56006
cycle: 0

Station Type Date Time Source
KCOS TAF 2022/01/28 18:22 UTC NOAA

TAF KCOS 281720Z 2818/2918 34008KT P6SM SKC
FM282100 20007KT P6SM SKC
FM290000 17007KT P6SM SKC
FM290300 36005KT P6SM SKC

Example: see airport list